^^
Marion, Virginia Banner
 

Adwolf, VA. Station Historical Data
[ Providing Data Since 6/07/2007 ]
Station Historical Data
Daily Summary for September 13, 2017 Units:  English    Metric   Both
« Previous Day
Next Day »
Daily Weekly Monthly Yearly Custom
  High: Low: Average:
Temperature: 79.6 °F 54.3 °F 66.2 °F
Dew Point: 62.2 °F 52.0 °F 56.5 °F
Humidity: 93% 40% 74%
Wind Speed: 15.0mph 0.0mph 4.3mph
Wind Gust: 15.0mph - -
Wind- - South
Pressure: 29.96 in 29.81 in -
Precipitation: 0.00 in    
Historical Graphs
 
 
Tabular Data for September 13, 2017
Time Temperature Dew Point Pressure Wind Wind Speed Wind Gust Humidity Rainfall Rate (Hourly) solar Conditions
00:03 68.1 °F 61.7 °F 29.94 in East 2.3 mph 2.3 mph 80% 0.00 in WeatherDisplay:10.37 W/m2 RA
00:08 68.1 °F 61.7 °F 29.94 in East 3.5 mph 3.5 mph 80% 0.00 in WeatherDisplay:10.37 W/m2 RA
00:13 67.9 °F 61.8 °F 29.94 in East 1.2 mph 1.2 mph 81% 0.00 in WeatherDisplay:10.37 W/m2 OVC
00:18 67.6 °F 61.5 °F 29.94 in East 1.2 mph 1.2 mph 81% 0.00 in WeatherDisplay:10.37 W/m2 OVC
00:23 67.1 °F 61.7 °F 29.94 in South 3.5 mph 3.5 mph 83% 0.00 in WeatherDisplay:10.37 W/m2 OVC
00:28 66.6 °F 61.9 °F 29.94 in Calm     85% 0.00 in WeatherDisplay:10.37 W/m2 OVC
00:33 66.3 °F 61.9 °F 29.95 in South 2.3 mph 2.3 mph 86% 0.00 in WeatherDisplay:10.37 W/m2 OVC
00:38 66.1 °F 62.1 °F 29.95 in NW 3.5 mph 3.5 mph 87% 0.00 in WeatherDisplay:10.37 W/m2 OVC
00:43 65.9 °F 62.2 °F 29.96 in Calm     88% 0.00 in WeatherDisplay:10.37 W/m2 OVC
00:48 65.7 °F 62.0 °F 29.95 in NW 2.3 mph 2.3 mph 88% 0.00 in WeatherDisplay:10.37 W/m2 OVC
00:53 65.5 °F 61.8 °F 29.95 in Calm     88% 0.00 in WeatherDisplay:10.37 W/m2 OVC
00:58 65.3 °F 61.9 °F 29.96 in NW 1.2 mph   89% 0.00 in WeatherDisplay:10.37 W/m2 OVC
01:03 65.1 °F 61.7 °F 29.96 in NW 2.3 mph 2.3 mph 89% 0.00 in WeatherDisplay:10.37 W/m2 OVC
01:08 64.9 °F 61.5 °F 29.96 in NW 2.3 mph 2.3 mph 89% 0.00 in WeatherDisplay:10.37 W/m2 OVC
01:13 64.8 °F 61.4 °F 29.95 in South 5.0 mph 5.0 mph 89% 0.00 in WeatherDisplay:10.37 W/m2 OVC
01:14 64.7 °F 61.3 °F 29.95 in South 4.6 mph 4.6 mph 89% 0.00 in WeatherDisplay:10.37 W/m2 OVC
01:19 64.6 °F 61.2 °F 29.95 in South 3.5 mph 3.5 mph 89% 0.00 in WeatherDisplay:10.37 W/m2 OVC
01:24 64.5 °F 60.8 °F 29.96 in South 2.3 mph 2.3 mph 88% 0.00 in WeatherDisplay:10.37 W/m2 OVC
01:29 64.4 °F 60.7 °F 29.95 in South 2.3 mph 2.3 mph 88% 0.00 in WeatherDisplay:10.37 W/m2 OVC
01:34 64.2 °F 60.5 °F 29.95 in South 2.3 mph 2.3 mph 88% 0.00 in WeatherDisplay:10.37 W/m2 OVC
01:39 64.0 °F 60.3 °F 29.96 in South 2.3 mph 2.3 mph 88% 0.00 in WeatherDisplay:10.37 W/m2 OVC
01:44 63.6 °F 59.9 °F 29.96 in South 2.3 mph 2.3 mph 88% 0.00 in WeatherDisplay:10.37 W/m2 OVC
01:54 62.7 °F 59.4 °F 29.96 in South 1.2 mph 1.2 mph 89% 0.00 in WeatherDisplay:10.37 W/m2 OVC
01:59 62.4 °F 59.1 °F 29.96 in South 1.2 mph   89% 0.00 in WeatherDisplay:10.37 W/m2 OVC
02:04 62.2 °F 58.9 °F 29.86 in SSW 2.3 mph 2.3 mph 89% 0.00 in WeatherDisplay:10.37 W/m2 OVC
02:09 62.0 °F 59.0 °F 29.86 in SSW 2.3 mph 2.3 mph 90% 0.00 in WeatherDisplay:10.37 W/m2 OVC
02:14 61.8 °F 58.8 °F 29.86 in SSW 1.2 mph 1.2 mph 90% 0.00 in WeatherDisplay:10.37 W/m2 OVC
02:19 61.6 °F 58.6 °F 29.86 in Calm     90% 0.00 in WeatherDisplay:10.37 W/m2 OVC
02:24 61.3 °F 58.3 °F 29.85 in Calm     90% 0.00 in WeatherDisplay:10.37 W/m2 BKN
02:29 60.9 °F 57.9 °F 29.85 in SSW 1.0 mph   90% 0.00 in WeatherDisplay:10.37 W/m2 BKN
02:34 60.5 °F 57.5 °F 29.86 in Calm     90% 0.00 in WeatherDisplay:10.37 W/m2 BKN
02:39 60.2 °F 57.2 °F 29.86 in SSW 1.2 mph 1.2 mph 90% 0.00 in WeatherDisplay:10.37 W/m2 BKN
02:44 59.8 °F 56.8 °F 29.86 in SSW 2.3 mph 2.3 mph 90% 0.00 in WeatherDisplay:10.37 W/m2 SCT
02:49 59.5 °F 56.8 °F 29.86 in SSW 2.3 mph 2.3 mph 91% 0.00 in WeatherDisplay:10.37 W/m2 SCT
02:54 59.3 °F 56.6 °F 29.86 in SSW 1.0 mph 1.0 mph 91% 0.00 in WeatherDisplay:10.37 W/m2 SCT
02:59 59.0 °F 56.3 °F 29.86 in SSW 1.2 mph 1.2 mph 91% 0.00 in WeatherDisplay:10.37 W/m2 SCT
03:04 58.8 °F 56.1 °F 29.86 in Calm     91% 0.00 in WeatherDisplay:10.37 W/m2 CLR
03:09 58.6 °F 55.9 °F 29.86 in Calm     91% 0.00 in WeatherDisplay:10.37 W/m2 CLR
03:14 58.4 °F 55.7 °F 29.86 in Calm     91% 0.00 in WeatherDisplay:10.37 W/m2 CLR
03:19 58.2 °F 55.5 °F 29.86 in Calm     91% 0.00 in WeatherDisplay:10.37 W/m2 CLR
03:24 58.1 °F 55.4 °F 29.86 in Calm     91% 0.00 in WeatherDisplay:10.37 W/m2 CLR
03:29 58.0 °F 55.3 °F 29.87 in Calm     91% 0.00 in WeatherDisplay:10.37 W/m2 CLR
03:34 57.9 °F 55.2 °F 29.87 in Calm     91% 0.00 in WeatherDisplay:10.37 W/m2 CLR
03:39 57.8 °F 55.1 °F 29.87 in Calm     91% 0.00 in WeatherDisplay:10.37 W/m2 CLR
03:44 57.5 °F 54.9 °F 29.87 in Calm     91% 0.00 in WeatherDisplay:10.37 W/m2 CLR
03:49 57.1 °F 54.5 °F 29.87 in Calm     91% 0.00 in WeatherDisplay:10.37 W/m2 CLR
03:54 56.8 °F 54.2 °F 29.87 in Calm     91% 0.00 in WeatherDisplay:10.37 W/m2 CLR
03:59 56.6 °F 54.0 °F 29.87 in Calm     91% 0.00 in WeatherDisplay:10.37 W/m2 CLR
04:04 56.3 °F 53.7 °F 29.87 in Calm     91% 0.00 in WeatherDisplay:10.37 W/m2 CLR
04:09 56.1 °F 53.5 °F 29.88 in Calm     91% 0.00 in WeatherDisplay:10.37 W/m2 CLR
04:14 56.1 °F 53.5 °F 29.88 in Calm     91% 0.00 in WeatherDisplay:10.37 W/m2 CLR
04:19 55.9 °F 53.3 °F 29.88 in Calm     91% 0.00 in WeatherDisplay:10.37 W/m2 CLR
04:24 55.7 °F 53.1 °F 29.87 in Calm     91% 0.00 in WeatherDisplay:10.37 W/m2 BKN
04:29 55.4 °F 52.8 °F 29.88 in SSW 1.2 mph 1.2 mph 91% 0.00 in WeatherDisplay:10.37 W/m2 BKN
04:34 55.2 °F 52.6 °F 29.88 in SSW 2.3 mph 2.3 mph 91% 0.00 in WeatherDisplay:10.37 W/m2 BKN
04:39 54.9 °F 52.3 °F 29.88 in SSW 2.3 mph 2.3 mph 91% 0.00 in WeatherDisplay:10.37 W/m2 BKN
04:44 54.8 °F 52.2 °F 29.88 in Calm     91% 0.00 in WeatherDisplay:10.37 W/m2 OVC
04:49 54.7 °F 52.1 °F 29.88 in Calm     91% 0.00 in WeatherDisplay:10.37 W/m2 OVC
04:54 54.7 °F 52.1 °F 29.88 in Calm     91% 0.00 in WeatherDisplay:10.37 W/m2 OVC
04:59 54.7 °F 52.1 °F 29.88 in SSW 1.2 mph   91% 0.00 in WeatherDisplay:10.37 W/m2 OVC
05:04 54.7 °F 52.1 °F 29.89 in SSW 1.2 mph   91% 0.00 in WeatherDisplay:10.37 W/m2 OVC
05:09 54.6 °F 52.0 °F 29.89 in SSW 1.2 mph 1.2 mph 91% 0.00 in WeatherDisplay:10.37 W/m2 OVC
05:14 54.6 °F 52.0 °F 29.89 in SSW 1.2 mph 1.2 mph 91% 0.00 in WeatherDisplay:10.37 W/m2 OVC
05:19 54.6 °F 52.3 °F 29.89 in SSW 1.2 mph   92% 0.00 in WeatherDisplay:10.37 W/m2 OVC
05:24 54.6 °F 52.3 °F 29.90 in SSW 1.2 mph   92% 0.00 in WeatherDisplay:10.37 W/m2 OVC
05:29 54.7 °F 52.4 °F 29.90 in SSW 2.0 mph 2.0 mph 92% 0.00 in WeatherDisplay:10.37 W/m2 OVC
05:34 54.8 °F 52.5 °F 29.90 in SSW 1.2 mph 1.2 mph 92% 0.00 in WeatherDisplay:10.37 W/m2 OVC
05:39 54.8 °F 52.5 °F 29.90 in SSW 1.2 mph 1.2 mph 92% 0.00 in WeatherDisplay:10.37 W/m2 OVC
05:44 54.8 °F 52.5 °F 29.90 in SSW 1.2 mph 1.2 mph 92% 0.00 in WeatherDisplay:10.37 W/m2 OVC
05:49 54.8 °F 52.5 °F 29.90 in Calm     92% 0.00 in WeatherDisplay:10.37 W/m2 OVC
05:54 54.7 °F 52.4 °F 29.91 in SSW 1.2 mph 1.2 mph 92% 0.00 in WeatherDisplay:10.37 W/m2 OVC
05:59 54.6 °F 52.3 °F 29.91 in SSW 1.2 mph 1.2 mph 92% 0.00 in WeatherDisplay:10.37 W/m2 OVC
06:04 54.5 °F 52.2 °F 29.91 in SSW 2.3 mph 2.3 mph 92% 0.00 in WeatherDisplay:10.37 W/m2 OVC
06:09 54.5 °F 52.2 °F 29.91 in SSW 2.3 mph 2.3 mph 92% 0.00 in WeatherDisplay:10.37 W/m2 OVC
06:14 54.3 °F 52.0 °F 29.91 in SE 2.3 mph 2.3 mph 92% 0.00 in WeatherDisplay:10.37 W/m2 OVC
06:19 54.5 °F 52.2 °F 29.91 in SE 3.0 mph 3.0 mph 92% 0.00 in WeatherDisplay:10.37 W/m2 OVC
06:24 54.5 °F 52.2 °F 29.91 in SE 2.3 mph 2.3 mph 92% 0.00 in WeatherDisplay:10.37 W/m2 OVC
06:29 54.6 °F 52.3 °F 29.90 in ESE 3.0 mph 3.0 mph 92% 0.00 in WeatherDisplay:10.37 W/m2 OVC
06:34 54.8 °F 52.5 °F 29.90 in ESE 3.5 mph 3.5 mph 92% 0.00 in WeatherDisplay:10.37 W/m2 OVC
06:44 55.1 °F 52.8 °F 29.91 in ESE 3.5 mph 3.5 mph 92% 0.00 in WeatherDisplay:10.37 W/m2 OVC
06:49 55.2 °F 52.9 °F 29.91 in ESE 2.3 mph 2.3 mph 92% 0.00 in WeatherDisplay:10.37 W/m2 OVC
06:54 55.3 °F 53.0 °F 29.91 in NE 3.5 mph 3.5 mph 92% 0.00 in WeatherDisplay:10.37 W/m2 OVC
06:59 55.3 °F 53.0 °F 29.91 in NE 3.5 mph 3.5 mph 92% 0.00 in WeatherDisplay:10.37 W/m2 OVC
07:04 55.3 °F 53.0 °F 29.92 in NE 3.5 mph 3.5 mph 92% 0.00 in WeatherDisplay:10.37 W/m2 OVC
07:09 55.3 °F 53.0 °F 29.92 in NE 3.5 mph 3.5 mph 92% 0.00 in WeatherDisplay:10.37 W/m2 OVC
07:14 55.2 °F 52.9 °F 29.92 in NE 2.3 mph 2.3 mph 92% 0.00 in WeatherDisplay:10.37 W/m2 OVC
07:19 55.2 °F 52.9 °F 29.92 in NE 2.3 mph 2.3 mph 92% 0.00 in WeatherDisplay:10.37 W/m2 OVC
07:24 55.1 °F 52.8 °F 29.92 in NE 2.3 mph 2.3 mph 92% 0.00 in WeatherDisplay:10.37 W/m2 OVC
07:29 55.1 °F 52.8 °F 29.92 in NE 2.3 mph 2.3 mph 92% 0.00 in WeatherDisplay:10.37 W/m2 OVC
07:39 55.1 °F 52.8 °F 29.92 in ENE 3.5 mph 3.5 mph 92% 0.00 in WeatherDisplay:10.37 W/m2 OVC
07:44 55.0 °F 52.7 °F 29.92 in ENE 3.5 mph 3.5 mph 92% 0.00 in WeatherDisplay:10.37 W/m2 OVC
07:49 55.0 °F 52.7 °F 29.93 in ESE 3.5 mph 3.5 mph 92% 0.00 in WeatherDisplay:10.37 W/m2 OVC
07:54 55.0 °F 52.7 °F 29.93 in ESE 3.5 mph 3.5 mph 92% 0.00 in WeatherDisplay:10.37 W/m2 OVC
07:59 55.2 °F 52.9 °F 29.93 in ESE 3.5 mph 3.5 mph 92% 0.00 in WeatherDisplay:10.37 W/m2 OVC
08:04 55.3 °F 53.0 °F 29.93 in ESE 3.5 mph 3.5 mph 92% 0.00 in WeatherDisplay:10.37 W/m2 OVC
08:09 55.4 °F 53.1 °F 29.93 in ESE 3.5 mph 3.5 mph 92% 0.00 in WeatherDisplay:10.37 W/m2 OVC
08:14 55.7 °F 53.4 °F 29.93 in ESE 2.3 mph 2.3 mph 92% 0.00 in WeatherDisplay:10.37 W/m2 OVC
08:19 56.1 °F 54.1 °F 29.92 in ESE 3.5 mph 3.5 mph 93% 0.00 in WeatherDisplay:10.37 W/m2 OVC
08:24 56.2 °F 54.2 °F 29.92 in ESE 4.0 mph 4.0 mph 93% 0.00 in WeatherDisplay:10.37 W/m2 OVC
08:29 56.4 °F 54.1 °F 29.92 in ESE 4.0 mph 4.0 mph 92% 0.00 in WeatherDisplay:10.37 W/m2 OVC
08:34 56.7 °F 54.7 °F 29.93 in East 7.0 mph 7.0 mph 93% 0.00 in WeatherDisplay:10.37 W/m2 OVC
08:39 57.0 °F 55.0 °F 29.92 in ESE 6.0 mph 6.0 mph 93% 0.00 in WeatherDisplay:10.37 W/m2 OVC
08:44 57.3 °F 55.0 °F 29.92 in NNE 3.5 mph 3.5 mph 92% 0.00 in WeatherDisplay:10.37 W/m2 OVC
08:49 57.7 °F 55.7 °F 29.92 in East 6.0 mph 6.0 mph 93% 0.00 in WeatherDisplay:10.37 W/m2 OVC
08:54 58.1 °F 56.0 °F 29.92 in East 5.8 mph 5.8 mph 93% 0.00 in WeatherDisplay:10.37 W/m2 OVC
08:59 58.4 °F 56.3 °F 29.92 in East 5.8 mph 5.8 mph 93% 0.00 in WeatherDisplay:10.37 W/m2 OVC
09:04 58.9 °F 56.8 °F 29.92 in NNE 5.0 mph 5.0 mph 93% 0.00 in WeatherDisplay:10.37 W/m2 SCT
09:09 59.5 °F 57.4 °F 29.92 in ESE 4.0 mph 4.0 mph 93% 0.00 in WeatherDisplay:10.37 W/m2 SCT
09:14 60.3 °F 57.9 °F 29.92 in ENE 4.0 mph 4.0 mph 92% 0.00 in WeatherDisplay:10.37 W/m2 SCT
09:19 61.3 °F 58.9 °F 29.92 in NE 5.8 mph 5.8 mph 92% 0.00 in WeatherDisplay:10.37 W/m2 SCT
09:24 61.8 °F 59.1 °F 29.92 in East 5.8 mph 5.8 mph 91% 0.00 in WeatherDisplay:10.37 W/m2 CLR
09:29 62.5 °F 59.5 °F 29.92 in NE 3.5 mph 3.5 mph 90% 0.00 in WeatherDisplay:10.37 W/m2 CLR
09:34 63.3 °F 59.6 °F 29.92 in East 7.0 mph 7.0 mph 88% 0.00 in WeatherDisplay:10.37 W/m2 CLR
09:39 64.0 °F 59.7 °F 29.92 in ENE 4.6 mph 4.6 mph 86% 0.00 in WeatherDisplay:10.37 W/m2 CLR
09:44 64.7 °F 59.7 °F 29.92 in NNE 4.6 mph 4.6 mph 84% 0.00 in WeatherDisplay:10.37 W/m2 SCT
09:49 65.4 °F 60.1 °F 29.91 in NNE 3.5 mph 3.5 mph 83% 0.00 in WeatherDisplay:10.37 W/m2 SCT
09:54 65.6 °F 60.3 °F 29.91 in NNE 6.9 mph 6.9 mph 83% 0.00 in WeatherDisplay:10.37 W/m2 SCT
09:59 66.0 °F 60.6 °F 29.91 in East 6.9 mph 6.9 mph 83% 0.00 in WeatherDisplay:10.37 W/m2 SCT
10:04 66.4 °F 60.4 °F 29.91 in ESE 4.6 mph 4.6 mph 81% 0.00 in WeatherDisplay:10.37 W/m2 BKN
10:09 66.8 °F 60.4 °F 29.91 in NNE 5.0 mph 5.0 mph 80% 0.00 in WeatherDisplay:10.37 W/m2 BKN
10:14 67.1 °F 60.3 °F 29.91 in NNE 4.6 mph 4.6 mph 79% 0.00 in WeatherDisplay:10.37 W/m2 BKN
10:19 67.7 °F 60.9 °F 29.91 in NE 3.5 mph 3.5 mph 79% 0.00 in WeatherDisplay:10.37 W/m2 BKN
10:24 68.4 °F 60.9 °F 29.92 in ENE 6.0 mph 6.0 mph 77% 0.00 in WeatherDisplay:10.37 W/m2 OVC
10:29 69.3 °F 60.6 °F 29.92 in SE 5.0 mph 5.0 mph 74% 0.00 in WeatherDisplay:10.37 W/m2 OVC
10:34 70.2 °F 59.5 °F 29.91 in SSE 6.9 mph 6.9 mph 69% 0.00 in WeatherDisplay:10.37 W/m2 OVC
10:39 71.2 °F 60.9 °F 29.91 in South 4.6 mph 4.6 mph 70% 0.00 in WeatherDisplay:10.37 W/m2 OVC
10:44 71.9 °F 59.5 °F 29.91 in South 4.6 mph 4.6 mph 65% 0.00 in WeatherDisplay:10.37 W/m2 OVC
10:49 72.1 °F 59.6 °F 29.91 in SSE 4.0 mph 4.0 mph 65% 0.00 in WeatherDisplay:10.37 W/m2 OVC
10:54 72.1 °F 59.2 °F 29.91 in SSE 10.0 mph 10.0 mph 64% 0.00 in WeatherDisplay:10.37 W/m2 OVC
10:59 71.9 °F 59.0 °F 29.91 in South 10.4 mph 10.4 mph 64% 0.00 in WeatherDisplay:10.37 W/m2 OVC
11:04 72.2 °F 59.3 °F 29.91 in South 5.8 mph 5.8 mph 64% 0.00 in WeatherDisplay:10.37 W/m2 OVC
11:05 72.2 °F 59.3 °F 29.91 in SSE 5.8 mph 5.8 mph 64% 0.00 in WeatherDisplay:10.37 W/m2 OVC
11:10 72.8 °F 59.0 °F 29.90 in SSW 5.8 mph 5.8 mph 62% 0.00 in WeatherDisplay:10.37 W/m2 OVC
11:15 73.4 °F 60.0 °F 29.90 in SSW 4.6 mph 4.6 mph 63% 0.00 in WeatherDisplay:10.37 W/m2 OVC
11:20 73.5 °F 58.3 °F 29.90 in SW 9.2 mph 9.2 mph 59% 0.00 in WeatherDisplay:10.37 W/m2 OVC
11:25 73.0 °F 59.2 °F 29.90 in South 8.0 mph 8.0 mph 62% 0.00 in WeatherDisplay:10.37 W/m2 OVC
11:30 72.9 °F 59.1 °F 29.90 in SSW 8.1 mph 8.1 mph 62% 0.00 in WeatherDisplay:10.37 W/m2 OVC
11:35 73.0 °F 58.3 °F 29.90 in SW 5.0 mph 5.0 mph 60% 0.00 in WeatherDisplay:10.37 W/m2 OVC
11:40 73.1 °F 58.8 °F 29.89 in SW 4.6 mph 4.6 mph 61% 0.00 in WeatherDisplay:10.37 W/m2 OVC
11:45 73.4 °F 57.7 °F 29.90 in SW 9.0 mph 9.0 mph 58% 0.00 in WeatherDisplay:10.37 W/m2 OVC
11:50 73.0 °F 58.3 °F 29.89 in SSW 5.0 mph 5.0 mph 60% 0.00 in WeatherDisplay:10.37 W/m2 OVC
11:55 73.3 °F 58.5 °F 29.89 in SW 4.6 mph 4.6 mph 60% 0.00 in WeatherDisplay:10.37 W/m2 OVC
12:00 73.5 °F 60.1 °F 29.89 in SSW 7.0 mph 7.0 mph 63% 0.00 in WeatherDisplay:10.37 W/m2 OVC
12:05 73.2 °F 58.4 °F 29.89 in West 5.8 mph 5.8 mph 60% 0.00 in WeatherDisplay:10.37 W/m2 BKN
12:10 73.6 °F 58.3 °F 29.88 in SW 5.8 mph 5.8 mph 59% 0.00 in WeatherDisplay:10.37 W/m2 BKN
12:15 74.0 °F 59.7 °F 29.88 in SW 6.0 mph 6.0 mph 61% 0.00 in WeatherDisplay:10.37 W/m2 BKN
12:20 74.3 °F 58.0 °F 29.88 in SSE 4.6 mph 4.6 mph 57% 0.00 in WeatherDisplay:10.37 W/m2 BKN
12:25 75.2 °F 58.9 °F 29.88 in SSE 1.2 mph 1.2 mph 57% 0.00 in WeatherDisplay:10.37 W/m2 BKN
12:30 76.3 °F 59.9 °F 29.88 in SSW 4.6 mph 4.6 mph 57% 0.00 in WeatherDisplay:10.37 W/m2 BKN
12:35 77.1 °F 58.6 °F 29.87 in SSE 6.0 mph 6.0 mph 53% 0.00 in WeatherDisplay:10.37 W/m2 BKN
12:40 77.1 °F 58.1 °F 29.87 in South 4.0 mph 4.0 mph 52% 0.00 in WeatherDisplay:10.37 W/m2 BKN
12:45 76.3 °F 57.3 °F 29.87 in SW 7.0 mph 7.0 mph 52% 0.00 in WeatherDisplay:10.37 W/m2 SCT
12:50 76.3 °F 57.9 °F 29.87 in SSE 3.5 mph 3.5 mph 53% 0.00 in WeatherDisplay:10.37 W/m2 SCT
12:55 77.0 °F 58.0 °F 29.87 in South 7.0 mph 7.0 mph 52% 0.00 in WeatherDisplay:10.37 W/m2 SCT
13:00 77.1 °F 58.6 °F 29.86 in WSW 7.0 mph 7.0 mph 53% 0.00 in WeatherDisplay:10.37 W/m2 SCT
13:05 76.6 °F 56.5 °F 29.86 in West 7.0 mph 7.0 mph 50% 0.00 in WeatherDisplay:10.37 W/m2 SCT
13:10 76.4 °F 58.0 °F 29.86 in SSW 6.9 mph 6.9 mph 53% 0.00 in WeatherDisplay:10.37 W/m2 SCT
13:15 76.6 °F 56.5 °F 29.85 in WSW 6.9 mph 6.9 mph 50% 0.00 in WeatherDisplay:10.37 W/m2 SCT
13:20 76.9 °F 57.9 °F 29.85 in SSW 8.1 mph 8.1 mph 52% 0.00 in WeatherDisplay:10.37 W/m2 SCT
13:25 77.7 °F 57.5 °F 29.85 in WSW 6.9 mph 6.9 mph 50% 0.00 in WeatherDisplay:10.37 W/m2 SCT
13:30 77.6 °F 57.4 °F 29.85 in SW 4.6 mph 4.6 mph 50% 0.00 in WeatherDisplay:10.37 W/m2 SCT
13:35 77.7 °F 57.0 °F 29.85 in SSE 7.0 mph 7.0 mph 49% 0.00 in WeatherDisplay:10.37 W/m2 SCT
13:40 77.8 °F 57.6 °F 29.85 in South 7.0 mph 7.0 mph 50% 0.00 in WeatherDisplay:10.37 W/m2 SCT
13:45 78.4 °F 56.5 °F 29.85 in SW 9.0 mph 9.0 mph 47% 0.00 in WeatherDisplay:10.37 W/m2 SCT
13:50 78.7 °F 54.3 °F 29.85 in SSE 10.0 mph 10.0 mph 43% 0.00 in WeatherDisplay:10.37 W/m2 SCT
13:55 78.8 °F 55.0 °F 29.84 in SW 7.0 mph 7.0 mph 44% 0.00 in WeatherDisplay:10.37 W/m2 SCT
14:00 78.6 °F 56.1 °F 29.84 in SSW 6.9 mph 6.9 mph 46% 0.00 in WeatherDisplay:10.37 W/m2 SCT
14:05 79.2 °F 54.1 °F 29.84 in ESE 7.0 mph 7.0 mph 42% 0.00 in WeatherDisplay:10.37 W/m2 SCT
14:10 78.9 °F 55.1 °F 29.84 in South 6.9 mph 6.9 mph 44% 0.00 in WeatherDisplay:10.37 W/m2 SCT
14:15 78.8 °F 54.4 °F 29.84 in South 6.9 mph 6.9 mph 43% 0.00 in WeatherDisplay:10.37 W/m2 SCT
14:20 78.9 °F 54.5 °F 29.83 in South 7.0 mph 7.0 mph 43% 0.00 in WeatherDisplay:10.37 W/m2 SCT
14:25 78.6 °F 54.2 °F 29.83 in SSW 10.4 mph 10.4 mph 43% 0.00 in WeatherDisplay:10.37 W/m2 CLR
14:30 78.8 °F 53.1 °F 29.84 in SSE 15.0 mph 15.0 mph 41% 0.00 in WeatherDisplay:10.37 W/m2 CLR
14:35 78.5 °F 53.5 °F 29.84 in SW 9.2 mph 9.2 mph 42% 0.00 in WeatherDisplay:10.37 W/m2 CLR
14:40 78.8 °F 53.7 °F 29.83 in SSW 8.1 mph 8.1 mph 42% 0.00 in WeatherDisplay:10.37 W/m2 CLR
14:45 78.9 °F 54.5 °F 29.83 in SW 8.1 mph 8.1 mph 43% 0.00 in WeatherDisplay:10.37 W/m2 SCT
14:50 78.9 °F 52.5 °F 29.83 in SW 11.5 mph 11.5 mph 40% 0.00 in WeatherDisplay:10.37 W/m2 SCT
14:55 78.6 °F 53.5 °F 29.83 in SSE 11.5 mph 11.5 mph 42% 0.00 in WeatherDisplay:10.37 W/m2 SCT
15:00 78.5 °F 52.8 °F 29.82 in SW 11.5 mph 11.5 mph 41% 0.00 in WeatherDisplay:10.37 W/m2 SCT
15:05 78.6 °F 53.5 °F 29.83 in SE 11.5 mph 11.5 mph 42% 0.00 in WeatherDisplay:10.37 W/m2 CLR
15:10 79.1 °F 53.3 °F 29.83 in SSW 12.0 mph 12.0 mph 41% 0.00 in WeatherDisplay:10.37 W/m2 CLR
15:15 79.5 °F 53.7 °F 29.82 in West 7.0 mph 7.0 mph 41% 0.00 in WeatherDisplay:10.37 W/m2 CLR
15:20 79.6 °F 53.8 °F 29.82 in SSE 5.8 mph 5.8 mph 41% 0.00 in WeatherDisplay:10.37 W/m2 CLR
15:25 79.6 °F 54.4 °F 29.83 in South 10.4 mph 10.4 mph 42% 0.00 in WeatherDisplay:10.37 W/m2 CLR
15:30 79.1 °F 52.7 °F 29.83 in SSE 11.0 mph 11.0 mph 40% 0.00 in WeatherDisplay:10.37 W/m2 CLR
15:35 78.4 °F 52.7 °F 29.82 in SW 10.4 mph 10.4 mph 41% 0.00 in WeatherDisplay:10.37 W/m2 SCT
15:40 78.5 °F 54.7 °F 29.82 in West 10.4 mph 10.4 mph 44% 0.00 in WeatherDisplay:10.37 W/m2 SCT
15:45 78.9 °F 55.7 °F 29.82 in SSW 8.1 mph 8.1 mph 45% 0.00 in WeatherDisplay:10.37 W/m2 SCT
15:50 79.3 °F 54.2 °F 29.82 in SW 9.0 mph 9.0 mph 42% 0.00 in WeatherDisplay:10.37 W/m2 SCT
15:55 78.3 °F 53.9 °F 29.82 in ESE 9.2 mph 9.2 mph 43% 0.00 in WeatherDisplay:10.37 W/m2 SCT
16:00 78.3 °F 54.6 °F 29.82 in SSW 9.2 mph 9.2 mph 44% 0.00 in WeatherDisplay:10.37 W/m2 SCT
16:05 78.1 °F 54.4 °F 29.82 in South 9.2 mph 9.2 mph 44% 0.00 in WeatherDisplay:10.37 W/m2 CLR
16:10 77.8 °F 53.5 °F 29.82 in SSW 9.2 mph 9.2 mph 43% 0.00 in WeatherDisplay:10.37 W/m2 CLR
16:15 77.0 °F 54.0 °F 29.82 in South 8.1 mph 8.1 mph 45% 0.00 in WeatherDisplay:10.37 W/m2 CLR
16:20 76.1 °F 53.8 °F 29.82 in SE 10.4 mph 10.4 mph 46% 0.00 in WeatherDisplay:10.37 W/m2 CLR
16:25 75.6 °F 54.5 °F 29.81 in SSW 5.8 mph 5.8 mph 48% 0.00 in WeatherDisplay:10.37 W/m2 CLR
16:30 75.2 °F 54.1 °F 29.82 in South 8.1 mph 8.1 mph 48% 0.00 in WeatherDisplay:10.37 W/m2 CLR
16:35 74.7 °F 54.8 °F 29.82 in SW 8.1 mph 8.1 mph 50% 0.00 in WeatherDisplay:10.37 W/m2 CLR
16:36 74.7 °F 54.8 °F 29.82 in South 9.0 mph 9.0 mph 50% 0.00 in WeatherDisplay:10.37 W/m2 CLR
16:41 74.6 °F 54.7 °F 29.82 in South 9.2 mph 9.2 mph 50% 0.00 in WeatherDisplay:10.37 W/m2 CLR
16:46 74.3 °F 55.0 °F 29.82 in South 9.2 mph 9.2 mph 51% 0.00 in WeatherDisplay:10.37 W/m2 CLR
16:51 74.1 °F 55.3 °F 29.82 in SSW 4.0 mph 4.0 mph 52% 0.00 in WeatherDisplay:10.37 W/m2 CLR
16:56 74.1 °F 55.3 °F 29.82 in South 4.6 mph 4.6 mph 52% 0.00 in WeatherDisplay:10.37 W/m2 CLR
17:01 74.2 °F 55.4 °F 29.82 in SE 4.6 mph 4.6 mph 52% 0.00 in WeatherDisplay:10.37 W/m2 CLR
17:06 74.3 °F 56.0 °F 29.82 in SSE 4.6 mph 4.6 mph 53% 0.00 in WeatherDisplay:10.37 W/m2 SCT
17:11 74.5 °F 56.7 °F 29.82 in East 4.6 mph 4.6 mph 54% 0.00 in WeatherDisplay:10.37 W/m2 SCT
17:16 74.5 °F 55.7 °F 29.82 in SSW 5.8 mph 5.8 mph 52% 0.00 in WeatherDisplay:10.37 W/m2 SCT
17:21 74.4 °F 55.6 °F 29.82 in South 6.0 mph 6.0 mph 52% 0.00 in WeatherDisplay:10.37 W/m2 SCT
17:26 74.1 °F 55.8 °F 29.83 in South 4.6 mph 4.6 mph 53% 0.00 in WeatherDisplay:10.37 W/m2 BKN
17:31 73.4 °F 55.2 °F 29.83 in SE 8.1 mph 8.1 mph 53% 0.00 in WeatherDisplay:10.37 W/m2 BKN
17:36 73.1 °F 55.4 °F 29.83 in SE 6.0 mph 6.0 mph 54% 0.00 in WeatherDisplay:10.37 W/m2 BKN
17:41 72.9 °F 55.7 °F 29.83 in SW 5.8 mph 5.8 mph 55% 0.00 in WeatherDisplay:10.37 W/m2 BKN
17:46 72.8 °F 56.2 °F 29.83 in SSE 4.6 mph 4.6 mph 56% 0.00 in WeatherDisplay:10.37 W/m2 BKN
17:51 72.7 °F 55.1 °F 29.83 in South 9.0 mph 9.0 mph 54% 0.00 in WeatherDisplay:10.37 W/m2 BKN
17:56 72.4 °F 54.8 °F 29.83 in SSE 9.2 mph 9.2 mph 54% 0.00 in WeatherDisplay:10.37 W/m2 BKN
18:01 72.3 °F 55.7 °F 29.83 in SSE 9.2 mph 9.2 mph 56% 0.00 in WeatherDisplay:10.37 W/m2 BKN
18:06 71.9 °F 55.8 °F 29.83 in SSE 8.1 mph 8.1 mph 57% 0.00 in WeatherDisplay:10.37 W/m2 OVC
18:11 71.7 °F 55.6 °F 29.83 in South 5.8 mph 5.8 mph 57% 0.00 in WeatherDisplay:10.37 W/m2 OVC
18:16 71.4 °F 55.8 °F 29.83 in SSE 6.9 mph 6.9 mph 58% 0.00 in WeatherDisplay:10.37 W/m2 OVC
18:21 71.2 °F 55.6 °F 29.83 in South 10.4 mph 10.4 mph 58% 0.00 in WeatherDisplay:10.37 W/m2 OVC
18:26 71.0 °F 55.4 °F 29.83 in South 10.4 mph 10.4 mph 58% 0.00 in WeatherDisplay:10.37 W/m2 OVC
18:31 70.9 °F 55.8 °F 29.83 in South 5.8 mph 5.8 mph 59% 0.00 in WeatherDisplay:10.37 W/m2 OVC
18:36 70.7 °F 55.6 °F 29.83 in SSW 4.6 mph 4.6 mph 59% 0.00 in WeatherDisplay:10.37 W/m2 OVC
18:41 70.5 °F 55.9 °F 29.84 in South 4.6 mph 4.6 mph 60% 0.00 in WeatherDisplay:10.37 W/m2 OVC
18:46 70.2 °F 55.6 °F 29.84 in SSE 5.8 mph 5.8 mph 60% 0.00 in WeatherDisplay:10.37 W/m2 OVC
18:51 70.1 °F 56.0 °F 29.84 in South 4.0 mph 4.0 mph 61% 0.00 in WeatherDisplay:10.37 W/m2 OVC
18:56 70.0 °F 56.3 °F 29.84 in South 3.5 mph 3.5 mph 62% 0.00 in WeatherDisplay:10.37 W/m2 OVC
19:01 69.9 °F 56.2 °F 29.84 in South 3.5 mph 3.5 mph 62% 0.00 in WeatherDisplay:10.37 W/m2 OVC
19:06 69.7 °F 56.5 °F 29.84 in SSE 3.5 mph 3.5 mph 63% 0.00 in WeatherDisplay:10.37 W/m2 OVC
19:11 69.7 °F 56.5 °F 29.84 in SSW 3.5 mph 3.5 mph 63% 0.00 in WeatherDisplay:10.37 W/m2 OVC
19:16 69.7 °F 56.5 °F 29.84 in SSE 3.5 mph 3.5 mph 63% 0.00 in WeatherDisplay:10.37 W/m2 OVC
19:21 69.8 °F 56.6 °F 29.84 in SW 5.8 mph 5.8 mph 63% 0.00 in WeatherDisplay:10.37 W/m2 OVC
19:26 69.7 °F 56.5 °F 29.84 in SSE 5.8 mph 5.8 mph 63% 0.00 in WeatherDisplay:10.37 W/m2 OVC
19:31 69.6 °F 56.8 °F 29.84 in SSW 5.8 mph 5.8 mph 64% 0.00 in WeatherDisplay:10.37 W/m2 OVC
19:36 69.5 °F 56.7 °F 29.84 in SSW 2.3 mph 2.3 mph 64% 0.00 in WeatherDisplay:10.37 W/m2 OVC
19:41 69.3 °F 56.6 °F 29.84 in South 7.0 mph 7.0 mph 64% 0.00 in WeatherDisplay:10.37 W/m2 OVC
19:46 69.3 °F 56.6 °F 29.85 in SSE 3.5 mph 3.5 mph 64% 0.00 in WeatherDisplay:10.37 W/m2 OVC
19:51 69.2 °F 56.9 °F 29.85 in SSE 3.5 mph 3.5 mph 65% 0.00 in WeatherDisplay:10.37 W/m2 OVC
19:56 69.1 °F 57.2 °F 29.85 in SSE 3.5 mph 3.5 mph 66% 0.00 in WeatherDisplay:10.37 W/m2 OVC
20:01 68.9 °F 57.0 °F 29.85 in South 2.3 mph 2.3 mph 66% 0.00 in WeatherDisplay:10.37 W/m2 OVC
20:06 68.9 °F 57.0 °F 29.86 in SSE 2.3 mph 2.3 mph 66% 0.00 in WeatherDisplay:10.37 W/m2 OVC
20:11 68.8 °F 56.9 °F 29.86 in SSE 2.3 mph 2.3 mph 66% 0.00 in WeatherDisplay:10.37 W/m2 OVC
20:16 68.9 °F 57.5 °F 29.86 in SSE 1.2 mph 1.2 mph 67% 0.00 in WeatherDisplay:10.37 W/m2 OVC
20:21 68.7 °F 57.3 °F 29.86 in SSE 1.0 mph 1.0 mph 67% 0.00 in WeatherDisplay:10.37 W/m2 OVC
20:26 68.6 °F 57.2 °F 29.86 in South 3.5 mph 3.5 mph 67% 0.00 in WeatherDisplay:10.37 W/m2 OVC
20:31 68.5 °F 57.5 °F 29.86 in South 3.5 mph 3.5 mph 68% 0.00 in WeatherDisplay:10.37 W/m2 OVC
20:36 68.4 °F 57.4 °F 29.86 in South 1.2 mph 1.2 mph 68% 0.00 in WeatherDisplay:10.37 W/m2 OVC
20:41 68.3 °F 57.7 °F 29.86 in SSW 2.3 mph 2.3 mph 69% 0.00 in WeatherDisplay:10.37 W/m2 OVC
20:46 68.2 °F 57.2 °F 29.86 in SW 3.5 mph 3.5 mph 68% 0.00 in WeatherDisplay:10.37 W/m2 OVC
20:51 68.1 °F 57.1 °F 29.86 in SW 3.5 mph 3.5 mph 68% 0.00 in WeatherDisplay:10.37 W/m2 OVC
20:56 68.1 °F 57.5 °F 29.86 in SW 2.3 mph 2.3 mph 69% 0.00 in WeatherDisplay:10.37 W/m2 OVC
21:01 68.1 °F 57.5 °F 29.87 in SW 2.3 mph 2.3 mph 69% 0.00 in WeatherDisplay:10.37 W/m2 OVC
21:06 67.8 °F 58.0 °F 29.87 in WSW 3.5 mph 3.5 mph 71% 0.00 in WeatherDisplay:10.37 W/m2 OVC
21:11 67.3 °F 58.3 °F 29.87 in West 3.5 mph 3.5 mph 73% 0.00 in WeatherDisplay:10.37 W/m2 OVC
21:16 66.8 °F 58.2 °F 29.87 in WSW 5.8 mph 5.8 mph 74% 0.00 in WeatherDisplay:10.37 W/m2 OVC
21:21 66.3 °F 58.1 °F 29.88 in SW 7.0 mph 7.0 mph 75% 0.00 in WeatherDisplay:10.37 W/m2 OVC
21:26 65.9 °F 58.4 °F 29.88 in WSW 7.0 mph 7.0 mph 77% 0.00 in WeatherDisplay:10.37 W/m2 OVC
21:31 65.4 °F 58.7 °F 29.89 in SW 6.9 mph 6.9 mph 79% 0.00 in WeatherDisplay:10.37 W/m2 OVC
21:36 64.9 °F 58.5 °F 29.88 in WNW 5.8 mph 5.8 mph 80% 0.00 in WeatherDisplay:10.37 W/m2 OVC
21:41 64.5 °F 58.5 °F 29.89 in WSW 5.8 mph 5.8 mph 81% 0.00 in WeatherDisplay:10.37 W/m2 OVC
21:46 64.1 °F 58.8 °F 29.89 in SW 3.5 mph 3.5 mph 83% 0.00 in WeatherDisplay:10.37 W/m2 OVC
21:51 63.8 °F 58.5 °F 29.89 in SW 7.0 mph 7.0 mph 83% 0.00 in WeatherDisplay:10.37 W/m2 OVC
21:56 63.2 °F 58.2 °F 29.89 in SSW 9.2 mph 9.2 mph 84% 0.00 in WeatherDisplay:10.37 W/m2 OVC
22:01 62.6 °F 58.3 °F 29.89 in SW 9.2 mph 9.2 mph 86% 0.00 in WeatherDisplay:10.37 W/m2 OVC
22:06 62.1 °F 58.1 °F 29.90 in SW 5.8 mph 5.8 mph 87% 0.00 in WeatherDisplay:10.37 W/m2 OVC
22:11 62.0 °F 58.4 °F 29.90 in SW 1.2 mph 1.2 mph 88% 0.00 in WeatherDisplay:10.37 W/m2 OVC
22:16 61.8 °F 58.2 °F 29.90 in SW 2.3 mph 2.3 mph 88% 0.00 in WeatherDisplay:10.37 W/m2 OVC
22:21 61.7 °F 58.4 °F 29.90 in SW 2.3 mph 2.3 mph 89% 0.00 in WeatherDisplay:10.37 W/m2 OVC
22:26 61.5 °F 58.2 °F 29.90 in SW 3.5 mph 3.5 mph 89% 0.00 in WeatherDisplay:10.37 W/m2 OVC
22:31 61.3 °F 58.0 °F 29.90 in SW 3.5 mph 3.5 mph 89% 0.00 in WeatherDisplay:10.37 W/m2 OVC
22:36 61.2 °F 57.9 °F 29.90 in SW 3.5 mph 3.5 mph 89% 0.00 in WeatherDisplay:10.37 W/m2 OVC
22:41 61.1 °F 57.8 °F 29.90 in SW 2.3 mph 2.3 mph 89% 0.00 in WeatherDisplay:10.37 W/m2 OVC
22:46 60.9 °F 57.6 °F 29.90 in SW 3.5 mph 3.5 mph 89% 0.00 in WeatherDisplay:10.37 W/m2 OVC
22:51 60.9 °F 57.9 °F 29.90 in SW 3.5 mph 3.5 mph 90% 0.00 in WeatherDisplay:10.37 W/m2 OVC
22:56 60.8 °F 57.8 °F 29.90 in SW 2.3 mph 2.3 mph 90% 0.00 in WeatherDisplay:10.37 W/m2 OVC
23:01 60.8 °F 57.8 °F 29.91 in SW 3.5 mph 3.5 mph 90% 0.00 in WeatherDisplay:10.37 W/m2 OVC
23:06 60.7 °F 57.7 °F 29.90 in SW 2.3 mph 2.3 mph 90% 0.00 in WeatherDisplay:10.37 W/m2 OVC
23:11 60.7 °F 57.7 °F 29.90 in SW 2.3 mph 2.3 mph 90% 0.00 in WeatherDisplay:10.37 W/m2 OVC
23:19 60.6 °F 57.6 °F 29.90 in SW 2.3 mph 2.3 mph 90% 0.00 in WeatherDisplay:10.37 W/m2 OVC
23:20 60.6 °F 57.6 °F 29.90 in SW 2.3 mph 2.3 mph 90% 0.00 in WeatherDisplay:10.37 W/m2 OVC
23:24 60.6 °F 57.6 °F 29.90 in SW 1.2 mph 1.2 mph 90% 0.00 in WeatherDisplay:10.37 W/m2 OVC
23:25 60.5 °F 57.5 °F 29.90 in SW 1.2 mph 1.2 mph 90% 0.00 in WeatherDisplay:10.37 W/m2 OVC
23:26 60.6 °F 57.6 °F 29.90 in SW 1.2 mph 1.2 mph 90% 0.00 in WeatherDisplay:10.37 W/m2 OVC
23:27 60.6 °F 57.6 °F 29.90 in SW 1.2 mph 1.2 mph 90% 0.00 in WeatherDisplay:10.37 W/m2 OVC
23:29 60.6 °F 57.6 °F 29.90 in SW 2.0 mph 2.0 mph 90% 0.00 in WeatherDisplay:10.37 W/m2 OVC
23:32 60.5 °F 57.5 °F 29.90 in SW 1.2 mph 1.2 mph 90% 0.00 in WeatherDisplay:10.37 W/m2 OVC
23:37 60.5 °F 57.5 °F 29.90 in SW 1.2 mph 1.2 mph 90% 0.00 in WeatherDisplay:10.37 W/m2 OVC
23:42 60.5 °F 57.5 °F 29.90 in SW 1.2 mph 1.2 mph 90% 0.00 in WeatherDisplay:10.37 W/m2 OVC
23:47 60.4 °F 57.4 °F 29.90 in SW 2.3 mph 2.3 mph 90% 0.00 in WeatherDisplay:10.37 W/m2 OVC
23:52 60.3 °F 57.3 °F 29.90 in SW 2.3 mph 2.3 mph 90% 0.00 in WeatherDisplay:10.37 W/m2 OVC
23:57 60.3 °F 57.3 °F 29.90 in SW 1.2 mph 1.2 mph 90% 0.00 in WeatherDisplay:10.37 W/m2 OVC
Smyth Weather
Compliments of Weather Underground - 3 mb